createdAt,value
2022-11-16T00:03:36.414Z,6.49
2022-11-16T00:08:45.341Z,6.47
2022-11-16T00:13:48.649Z,6.43
2022-11-16T00:18:58.352Z,6.39
2022-11-16T00:24:03.099Z,6.47
2022-11-16T00:29:06.771Z,6.55
2022-11-16T00:34:10.186Z,6.59
2022-11-16T00:39:15.981Z,6.59
2022-11-16T00:44:19.385Z,6.58
2022-11-16T00:49:22.671Z,6.54
2022-11-16T00:54:26.098Z,6.55
2022-11-16T00:59:29.396Z,6.57
2022-11-16T01:04:32.709Z,6.58
2022-11-16T01:09:36.051Z,6.62
2022-11-16T01:14:46.814Z,6.59
2022-11-16T01:19:50.323Z,6.55
2022-11-16T01:24:53.534Z,6.51
2022-11-16T01:29:57.043Z,6.53
2022-11-16T01:35:00.258Z,6.56
2022-11-16T01:40:04.698Z,6.58
2022-11-16T01:45:30.544Z,6.57
2022-11-16T01:50:35.082Z,6.53
2022-11-16T01:55:40.701Z,6.56
2022-11-16T02:00:44.143Z,6.57
2022-11-16T02:06:28.216Z,6.51
2022-11-16T02:11:50.989Z,6.46
2022-11-16T02:17:12.633Z,6.43
2022-11-16T02:22:38.766Z,6.45
2022-11-16T02:27:47.717Z,6.47
2022-11-16T02:32:59.878Z,6.48
2022-11-16T02:38:14.435Z,6.44
2022-11-16T02:43:26.624Z,6.41
2022-11-16T02:48:42.119Z,6.35
2022-11-16T02:54:23.795Z,6.31
2022-11-16T02:59:31.743Z,6.32
2022-11-16T03:05:05.160Z,6.27
2022-11-16T03:10:10.356Z,6.22
2022-11-16T03:15:14.042Z,6.21
2022-11-16T03:20:27.176Z,6.20
2022-11-16T03:25:38.474Z,6.16
2022-11-16T03:30:52.904Z,6.08
2022-11-16T03:36:10.407Z,6.03
2022-11-16T03:41:15.525Z,6.07
2022-11-16T03:46:21.621Z,6.08
2022-11-16T03:51:25.856Z,6.05
2022-11-16T03:56:29.061Z,6.00
2022-11-16T04:01:32.370Z,5.91
2022-11-16T04:06:54.283Z,5.86
2022-11-16T04:12:15.968Z,5.85
2022-11-16T04:17:39.245Z,5.83
2022-11-16T04:23:22.288Z,5.76
2022-11-16T04:28:32.252Z,5.63
2022-11-16T04:33:54.941Z,5.54
2022-11-16T04:38:58.225Z,5.50
2022-11-16T04:44:01.544Z,5.46
2022-11-16T04:49:04.856Z,5.41
2022-11-16T04:54:08.088Z,5.33
2022-11-16T04:59:11.571Z,5.28
2022-11-16T05:04:14.688Z,5.23
2022-11-16T05:09:17.992Z,5.26
2022-11-16T05:14:21.101Z,5.22
2022-11-16T05:19:42.946Z,5.17
2022-11-16T05:24:46.084Z,5.06
2022-11-16T05:29:49.990Z,5.02
2022-11-16T05:34:53.384Z,5.03
2022-11-16T05:39:57.224Z,4.92
2022-11-16T05:45:00.552Z,4.83
2022-11-16T05:50:04.297Z,4.72
2022-11-16T05:55:08.601Z,4.61
2022-11-16T06:00:13.135Z,4.54
2022-11-16T06:05:16.336Z,4.55
2022-11-16T06:10:19.638Z,4.60
2022-11-16T06:15:23.049Z,4.67
2022-11-16T06:20:27.590Z,4.65
2022-11-16T06:25:33.566Z,4.60
2022-11-16T06:30:40.346Z,4.57
2022-11-16T06:35:44.178Z,4.55
2022-11-16T06:40:56.125Z,4.54
2022-11-16T06:45:59.311Z,4.49
2022-11-16T06:51:02.561Z,4.36
2022-11-16T06:56:06.843Z,4.21
2022-11-16T07:01:12.673Z,4.14
2022-11-16T07:06:16.226Z,4.20
2022-11-16T07:11:20.496Z,4.19
2022-11-16T07:16:23.874Z,4.11
2022-11-16T07:21:26.985Z,4.07
2022-11-16T07:26:33.209Z,4.13
2022-11-16T07:31:36.368Z,4.11
2022-11-16T07:36:39.794Z,4.05
2022-11-16T07:41:44.530Z,4.01
2022-11-16T07:46:48.601Z,4.04
2022-11-16T07:51:52.071Z,4.04
2022-11-16T07:56:55.182Z,4.11
2022-11-16T08:01:59.466Z,4.09
2022-11-16T08:07:02.891Z,4.13
2022-11-16T08:12:06.478Z,4.24
2022-11-16T08:17:09.853Z,4.36
2022-11-16T08:22:13.284Z,4.30
2022-11-16T08:27:17.817Z,4.12
2022-11-16T08:32:21.015Z,4.04
2022-11-16T08:37:26.382Z,3.99
2022-11-16T08:42:29.485Z,3.96
2022-11-16T08:47:33.229Z,3.90
2022-11-16T08:52:36.422Z,3.90
2022-11-16T08:57:41.132Z,3.83
2022-11-16T09:02:44.162Z,3.77
2022-11-16T09:07:47.466Z,3.69
2022-11-16T09:12:50.578Z,3.72
2022-11-16T09:17:55.143Z,3.71
2022-11-16T09:22:58.226Z,3.66
2022-11-16T09:28:01.551Z,3.72
2022-11-16T09:33:04.634Z,3.74
2022-11-16T09:38:10.068Z,3.65
2022-11-16T09:43:45.623Z,3.58
2022-11-16T09:48:51.348Z,3.62
2022-11-16T09:54:08.876Z,3.70
2022-11-16T09:59:25.821Z,3.76
2022-11-16T10:04:58.272Z,3.76
2022-11-16T10:10:02.331Z,3.74
2022-11-16T10:15:33.902Z,3.67
2022-11-16T10:21:03.749Z,3.63
2022-11-16T10:26:37.674Z,3.66
2022-11-16T10:32:28.320Z,3.62
2022-11-16T10:37:36.792Z,3.54
2022-11-16T10:42:39.927Z,3.51
2022-11-16T10:48:02.179Z,3.47
2022-11-16T10:53:05.809Z,3.53
2022-11-16T10:58:09.046Z,3.52
2022-11-16T11:03:13.175Z,3.47
2022-11-16T11:08:31.909Z,3.50
2022-11-16T11:13:35.363Z,3.46
2022-11-16T11:18:38.945Z,3.41
2022-11-16T11:23:52.151Z,3.44
2022-11-16T11:28:56.414Z,3.34
2022-11-16T11:34:18.260Z,3.33
2022-11-16T11:39:21.361Z,3.32
2022-11-16T11:44:38.130Z,3.44
2022-11-16T11:49:52.432Z,3.50
2022-11-16T11:54:56.814Z,3.59
2022-11-16T12:00:02.869Z,3.47
2022-11-16T12:05:50.834Z,3.39
2022-11-16T12:11:13.191Z,3.32
2022-11-16T12:16:53.062Z,3.30
2022-11-16T12:22:26.271Z,3.23
2022-11-16T12:28:10.262Z,3.06
2022-11-16T12:33:37.343Z,3.11
2022-11-16T12:38:49.747Z,3.04
2022-11-16T12:44:14.544Z,3.07
2022-11-16T12:49:28.815Z,3.20
2022-11-16T12:55:29.827Z,3.21
2022-11-16T13:00:56.058Z,3.16
2022-11-16T13:06:25.633Z,3.15
2022-11-16T13:11:47.799Z,3.11
2022-11-16T13:16:53.161Z,3.07
2022-11-16T13:22:07.535Z,3.12
2022-11-16T13:27:53.119Z,3.13
2022-11-16T13:33:05.385Z,3.14
2022-11-16T13:38:15.553Z,3.10
2022-11-16T13:43:20.059Z,3.07
2022-11-16T13:48:36.476Z,3.11
2022-11-16T13:59:23.041Z,3.13
2022-11-16T14:04:41.935Z,3.16
2022-11-16T14:09:49.631Z,3.11
2022-11-16T14:15:33.185Z,3.13
2022-11-16T14:21:33.225Z,3.16
2022-11-16T14:27:17.099Z,3.19
2022-11-16T14:32:36.999Z,3.15
2022-11-16T14:37:44.698Z,3.19
2022-11-16T14:43:15.367Z,3.23
2022-11-16T14:48:22.628Z,3.25
2022-11-16T14:53:28.381Z,3.24
2022-11-16T14:58:32.244Z,3.21
2022-11-16T15:03:45.974Z,3.16
2022-11-16T15:08:59.763Z,3.11
2022-11-16T15:14:03.100Z,3.05
2022-11-16T15:19:12.754Z,3.07
2022-11-16T15:24:31.851Z,3.04
2022-11-16T15:29:36.455Z,3.02
2022-11-16T15:34:40.177Z,3.07
2022-11-16T15:39:43.999Z,3.07
2022-11-16T15:44:47.348Z,3.07
2022-11-16T15:49:53.227Z,3.05
2022-11-16T15:55:04.996Z,3.08
2022-11-16T16:00:23.513Z,3.13
2022-11-16T16:05:35.061Z,3.12
2022-11-16T16:10:38.207Z,3.10
2022-11-16T16:15:41.786Z,3.06
2022-11-16T16:20:49.092Z,3.04
2022-11-16T16:25:52.198Z,3.05
2022-11-16T16:30:55.323Z,3.10
2022-11-16T16:35:59.327Z,3.14
2022-11-16T16:41:05.148Z,3.15
2022-11-16T16:46:13.294Z,3.10
2022-11-16T16:51:16.430Z,3.06
2022-11-16T16:56:20.359Z,3.01
2022-11-16T17:01:23.515Z,3.01
2022-11-16T17:06:26.876Z,3.06
2022-11-16T17:11:30.085Z,3.10
2022-11-16T17:16:33.291Z,3.12
2022-11-16T17:21:36.510Z,3.06
2022-11-16T17:26:41.361Z,2.97
2022-11-16T17:31:48.060Z,2.94
2022-11-16T17:36:51.358Z,2.91
2022-11-16T17:41:54.983Z,2.91
2022-11-16T17:46:58.180Z,2.93
2022-11-16T17:52:02.035Z,2.97
2022-11-16T17:57:05.459Z,2.90
2022-11-16T18:02:11.922Z,2.88
2022-11-16T18:07:15.293Z,2.79
2022-11-16T18:12:18.930Z,2.72
2022-11-16T18:17:22.139Z,2.76
2022-11-16T18:22:25.458Z,2.78
2022-11-16T18:27:28.987Z,2.78
2022-11-16T18:32:33.827Z,2.77
2022-11-16T18:37:37.225Z,2.77
2022-11-16T18:42:41.816Z,2.74
2022-11-16T18:47:46.309Z,2.73
2022-11-16T18:52:49.633Z,2.81
2022-11-16T18:57:52.721Z,2.84
2022-11-16T19:02:55.851Z,2.82
2022-11-16T19:07:59.046Z,2.80
2022-11-16T19:13:02.362Z,2.78
2022-11-16T19:18:20.999Z,2.75
2022-11-16T19:23:25.230Z,2.67
2022-11-16T19:28:28.367Z,2.70
2022-11-16T19:33:31.767Z,2.77
2022-11-16T19:38:35.596Z,2.79
2022-11-16T19:43:39.528Z,2.73
2022-11-16T19:48:45.856Z,2.69
2022-11-16T19:53:49.223Z,2.73
2022-11-16T19:58:53.033Z,2.72
2022-11-16T20:04:02.521Z,2.67
2022-11-16T20:09:09.984Z,2.72
2022-11-16T20:14:14.216Z,2.85
2022-11-16T20:19:19.137Z,2.85
2022-11-16T20:24:22.497Z,2.82
2022-11-16T20:29:25.705Z,2.81
2022-11-16T20:34:29.021Z,2.83
2022-11-16T20:39:32.222Z,2.81
2022-11-16T20:44:35.427Z,2.77
2022-11-16T20:49:38.742Z,2.74
2022-11-16T20:54:41.966Z,2.72
2022-11-16T20:59:45.164Z,2.79
2022-11-16T21:04:48.464Z,2.81
2022-11-16T21:10:10.224Z,2.82
2022-11-16T21:15:13.527Z,2.83
2022-11-16T21:20:32.781Z,2.81
2022-11-16T21:25:36.434Z,2.77
2022-11-16T21:30:39.840Z,2.76
2022-11-16T21:35:42.945Z,2.81
2022-11-16T21:40:46.872Z,2.83
2022-11-16T21:45:51.269Z,2.82
2022-11-16T21:51:04.123Z,2.76
2022-11-16T21:56:12.860Z,2.75
2022-11-16T22:01:16.431Z,2.71
2022-11-16T22:06:38.375Z,2.67
2022-11-16T22:17:21.335Z,2.74
2022-11-16T22:22:28.022Z,2.79
2022-11-16T22:27:31.529Z,2.80
2022-11-16T22:32:34.837Z,2.75
2022-11-16T22:37:38.156Z,2.69
2022-11-16T22:42:41.490Z,2.62
2022-11-16T22:47:44.792Z,2.59
2022-11-16T22:52:48.292Z,2.62
2022-11-16T22:57:52.330Z,2.67
2022-11-16T23:02:55.684Z,2.65
2022-11-16T23:07:59.249Z,2.63
2022-11-16T23:13:21.410Z,2.54
2022-11-16T23:18:24.672Z,2.53
2022-11-16T23:23:46.456Z,2.51
2022-11-16T23:28:49.968Z,2.49
2022-11-16T23:33:53.182Z,2.47
2022-11-16T23:38:56.486Z,2.47
2022-11-16T23:43:59.806Z,2.55
2022-11-16T23:49:03.221Z,2.58
2022-11-16T23:54:07.761Z,2.60
2022-11-16T23:59:11.064Z,2.60
